Harrisonburg, VA

10:31 PM EST on November 27, 2014 (GMT -0500)
HFD - Station 4 | Change Station
CLOSE
Current Station
Personal Weather Station
Location: Harrisonburg, VA
Elevation: 1348 ft
Nearby Weather Stations

Elev 1348 ft 38.45 °N, 78.86 °W | Updated 3 seconds ago

Mostly Cloudy
Mostly Cloudy
32.2 °F
Feels Like 32 °F
N
2.9
Wind Variable Wind from WNW
Gusts 9.0 mph

Today
High -- | Low -- °F
--% Chance of Precip.
Yesterday
High -- | Low -- °F
Precip. -- in
7:09 AM 4:56 PM
Waxing Crescent, 35% visible
Pressure 30.21 in
Visibility 10.0 miles
Clouds Scattered Clouds 4600 ft
Scattered Clouds 5000 ft
Mostly Cloudy 6000 ft
Windchill 32 °F
Dew Point 25 °F
Humidity 74%
Rainfall 0.30 in
Snow Depth Not available.
UV 0 out of 12
Pollen .10 out of 12
Air Quality Not available.
Flu Activity Not available.
METAR KSHD 280315Z AUTO 00000KT 10SM SCT046 SCT050 BKN060 M01/M06 A3021 RMK AO2 T10091057

More Conditions Fewer Conditions

Pressure 30.21 in
Visibility 10.0 miles
Clouds Scattered Clouds 4600 ft
Scattered Clouds 5000 ft
Mostly Cloudy 6000 ft
Windchill 32 °F
Dew Point 25 °F
Humidity 74%
Rainfall 0.30 in
Snow Depth Not available.
UV 0 out of 12
Pollen .10 out of 12
Air Quality Not available.
Flu Activity Not available.
METAR KSHD 280315Z AUTO 00000KT 10SM SCT046 SCT050 BKN060 M01/M06 A3021 RMK AO2 T10091057

More Conditions Fewer Conditions

10-Day Weather Forecast

Almanac

Astronomy

Nov. 27, 2014 Rise Set
Actual Time
Civil Twilight
Nautical Twilight
Astronomical Twilight
Moon
Length of Visible Light
Length of Day
Tomorrow will be .
, % of the Moon is Illuminated

Today's Extremes

State Highs State Lows

Community

WunderPhotos

Upload Photos

1,774,168 photos uploaded!

WunderBlogs® & News

Nearby

Air Quality

  Air Quality AQ Index Pollutant
Not available.

Snow Depth

Station Depth Elevation

Earthquake Activity

City Distance Mag. Time & Date
Minimum magnitude displayed is 2.5.

Coastal Water Temperatures

Place Temperature

Nearby Weather Stations